Time;durP1;ratioP1;P1;durP2;ratioP2;P2;SDS_P1;SDS_P2;PMS_P1;PMS_P2;Temp;Humidity;BMP_temperature;BMP_pressure;BME280_temperature;BME280_humidity;BME280_pressure;Samples;Min_cycle;Max_cycle;Signal;HPM_P1;HPM_P2
2023/04/22 00:00:47;;;;;;;15.70;9.98;;;;;;;;;;5015004;28;20040;-62
2023/04/22 00:03:13;;;;;;;16.58;10.43;;;;;;;;;;5011918;28;20029;-62
2023/04/22 00:05:40;;;;;;;20.77;10.63;;;;;;;;;;5018931;28;20053;-63
2023/04/22 00:08:06;;;;;;;19.67;11.80;;;;;;;;;;5022668;28;20045;-61
2023/04/22 00:10:32;;;;;;;19.02;10.63;;;;;;;;;;5018030;28;20029;-62
2023/04/22 00:12:57;;;;;;;20.35;11.80;;;;;;;;;;5017833;28;20120;-62
2023/04/22 00:15:24;;;;;;;18.55;10.93;;;;;;;;;;5012771;28;20033;-62
2023/04/22 00:17:50;;;;;;;21.17;11.52;;;;;;;;;;5018940;28;20061;-62
2023/04/22 00:20:18;;;;;;;19.02;10.77;;;;;;;;;;5026609;28;20034;-62
2023/04/22 00:22:43;;;;;;;16.85;10.75;;;;;;;;;;5013348;28;20116;-63
2023/04/22 00:25:08;;;;;;;19.00;10.80;;;;;;;;;;5014635;28;20432;-62
2023/04/22 00:27:34;;;;;;;17.75;10.85;;;;;;;;;;5013480;28;20030;-63
2023/04/22 00:29:59;;;;;;;19.33;11.40;;;;;;;;;;5020562;28;20044;-62
2023/04/22 00:32:25;;;;;;;18.48;11.20;;;;;;;;;;5011514;28;20030;-63
2023/04/22 00:34:51;;;;;;;21.05;12.30;;;;;;;;;;5012466;28;20034;-63
2023/04/22 00:37:16;;;;;;;22.23;12.20;;;;;;;;;;5023963;28;20068;-62
2023/04/22 00:39:41;;;;;;;20.88;11.45;;;;;;;;;;5028646;28;20045;-63
2023/04/22 00:42:07;;;;;;;19.40;11.60;;;;;;;;;;5013049;28;20034;-62
2023/04/22 00:44:34;;;;;;;22.63;12.10;;;;;;;;;;5026824;28;20033;-62
2023/04/22 00:47:00;;;;;;;19.20;11.77;;;;;;;;;;5012923;28;20447;-61
2023/04/22 00:49:26;;;;;;;20.08;11.55;;;;;;;;;;5018325;28;20472;-61
2023/04/22 00:51:52;;;;;;;21.52;12.38;;;;;;;;;;5011940;28;20041;-62
2023/04/22 00:54:18;;;;;;;22.17;12.02;;;;;;;;;;5026211;28;20091;-62
2023/04/22 00:56:44;;;;;;;21.88;13.07;;;;;;;;;;5023539;28;20034;-62
2023/04/22 00:59:09;;;;;;;22.65;12.88;;;;;;;;;;5010690;28;20037;-62
2023/04/22 01:01:35;;;;;;;24.52;13.43;;;;;;;;;;5011243;28;20635;-62
2023/04/22 01:04:02;;;;;;;25.17;13.27;;;;;;;;;;5011152;28;20527;-63
2023/04/22 01:06:31;;;;;;;23.77;13.48;;;;;;;;;;5011666;28;20026;-63
2023/04/22 01:08:57;;;;;;;23.45;13.43;;;;;;;;;;5024054;28;20033;-62
2023/04/22 01:11:23;;;;;;;23.23;13.55;;;;;;;;;;5015606;28;20393;-62
2023/04/22 01:13:48;;;;;;;26.77;13.75;;;;;;;;;;5027596;28;20041;-63
2023/04/22 01:16:14;;;;;;;24.13;13.60;;;;;;;;;;5017006;28;20025;-63
2023/04/22 01:18:40;;;;;;;25.80;14.95;;;;;;;;;;5030211;28;20033;-62
2023/04/22 01:21:06;;;;;;;25.42;14.75;;;;;;;;;;5020403;28;20079;-61
2023/04/22 01:23:32;;;;;;;26.98;15.15;;;;;;;;;;5010718;28;20116;-63
2023/04/22 01:25:57;;;;;;;29.40;14.45;;;;;;;;;;5014611;28;20030;-63
2023/04/22 01:28:23;;;;;;;25.55;14.55;;;;;;;;;;5023328;28;20044;-63
2023/04/22 01:30:49;;;;;;;24.92;14.60;;;;;;;;;;5028361;28;20037;-63
2023/04/22 01:33:15;;;;;;;26.00;14.43;;;;;;;;;;5029198;28;20549;-64
2023/04/22 01:35:41;;;;;;;26.52;14.77;;;;;;;;;;5022642;28;20128;-63
2023/04/22 01:38:08;;;;;;;27.17;15.32;;;;;;;;;;5051304;28;20203;-62
2023/04/22 01:40:33;;;;;;;24.52;14.55;;;;;;;;;;5041135;28;20467;-63
2023/04/22 01:42:59;;;;;;;22.73;14.05;;;;;;;;;;5040191;28;20044;-62
2023/04/22 01:45:26;;;;;;;25.45;14.25;;;;;;;;;;5012801;28;20037;-62
2023/04/22 01:47:52;;;;;;;23.77;13.77;;;;;;;;;;5020368;28;20080;-62
2023/04/22 01:50:17;;;;;;;24.40;14.57;;;;;;;;;;5010972;28;20033;-64
2023/04/22 01:52:43;;;;;;;24.30;13.93;;;;;;;;;;5018238;28;20431;-62
2023/04/22 01:55:08;;;;;;;26.90;15.40;;;;;;;;;;5011149;28;20042;-62
2023/04/22 01:57:34;;;;;;;26.23;15.55;;;;;;;;;;5014953;28;20060;-63
2023/04/22 01:59:59;;;;;;;26.73;15.57;;;;;;;;;;5019738;28;20048;-62
2023/04/22 02:02:26;;;;;;;27.27;15.63;;;;;;;;;;5010200;28;20117;-62
2023/04/22 02:04:51;;;;;;;30.10;15.52;;;;;;;;;;5011074;28;20026;-62
2023/04/22 02:07:16;;;;;;;30.35;16.73;;;;;;;;;;5029652;28;20535;-62
2023/04/22 02:09:42;;;;;;;27.67;15.10;;;;;;;;;;5021471;28;20026;-61
2023/04/22 02:12:07;;;;;;;27.38;15.35;;;;;;;;;;5021296;28;20388;-62
2023/04/22 02:14:33;;;;;;;28.95;16.08;;;;;;;;;;5021094;28;20052;-62
2023/04/22 02:16:58;;;;;;;25.15;15.43;;;;;;;;;;5034843;28;20065;-62
2023/04/22 02:19:24;;;;;;;27.42;15.43;;;;;;;;;;5016860;28;20034;-62
2023/04/22 02:21:49;;;;;;;31.75;16.88;;;;;;;;;;5016801;28;20025;-62
2023/04/22 02:24:15;;;;;;;33.63;16.90;;;;;;;;;;5034117;28;20116;-62
2023/04/22 02:26:42;;;;;;;29.88;16.17;;;;;;;;;;5015962;28;20037;-63
2023/04/22 02:29:07;;;;;;;26.55;16.23;;;;;;;;;;5014290;28;20575;-63
2023/04/22 02:31:32;;;;;;;30.10;15.90;;;;;;;;;;5020768;28;20105;-63
2023/04/22 02:33:58;;;;;;;30.67;16.73;;;;;;;;;;5015187;28;20052;-63
2023/04/22 02:36:23;;;;;;;26.48;16.50;;;;;;;;;;5017344;28;20400;-62
2023/04/22 02:38:49;;;;;;;32.08;17.30;;;;;;;;;;5024635;28;20116;-62
2023/04/22 02:41:14;;;;;;;29.80;16.35;;;;;;;;;;5023486;28;20403;-62
2023/04/22 02:43:44;;;;;;;29.08;16.60;;;;;;;;;;5014064;28;20587;-62
2023/04/22 02:46:11;;;;;;;37.42;18.55;;;;;;;;;;5016967;28;20082;-63
2023/04/22 02:48:37;;;;;;;29.30;17.48;;;;;;;;;;5025841;28;20072;-62
2023/04/22 02:51:03;;;;;;;32.13;18.52;;;;;;;;;;5032272;28;20468;-64
2023/04/22 02:53:28;;;;;;;29.33;18.05;;;;;;;;;;5031564;28;20104;-63
2023/04/22 02:55:55;;;;;;;29.73;18.15;;;;;;;;;;5024277;28;20029;-62
2023/04/22 02:58:21;;;;;;;30.48;18.08;;;;;;;;;;5023293;28;20472;-62
2023/04/22 03:00:46;;;;;;;29.83;17.35;;;;;;;;;;5027535;28;20095;-63
2023/04/22 03:03:12;;;;;;;34.25;19.15;;;;;;;;;;5016807;28;20038;-63
2023/04/22 03:05:37;;;;;;;30.73;18.35;;;;;;;;;;5030824;28;20399;-63
2023/04/22 03:08:02;;;;;;;30.13;17.60;;;;;;;;;;5026127;28;20034;-62
2023/04/22 03:10:28;;;;;;;31.85;17.77;;;;;;;;;;5013673;28;20472;-62
2023/04/22 03:12:53;;;;;;;26.70;16.52;;;;;;;;;;5017049;28;20043;-64
2023/04/22 03:15:19;;;;;;;29.20;16.80;;;;;;;;;;5014013;28;20380;-63
2023/04/22 03:17:44;;;;;;;27.02;15.98;;;;;;;;;;5018898;28;20037;-63
2023/04/22 03:20:10;;;;;;;26.35;15.75;;;;;;;;;;5030211;28;20037;-62
2023/04/22 03:22:36;;;;;;;25.63;14.50;;;;;;;;;;5027997;28;20022;-62
2023/04/22 03:25:02;;;;;;;25.63;14.75;;;;;;;;;;5019581;28;20037;-64
2023/04/22 03:27:27;;;;;;;25.42;14.73;;;;;;;;;;5025547;28;20427;-63
2023/04/22 03:29:53;;;;;;;24.95;14.05;;;;;;;;;;5024070;28;20066;-62
2023/04/22 03:32:18;;;;;;;27.02;14.20;;;;;;;;;;5014253;28;20037;-62
2023/04/22 03:34:43;;;;;;;23.55;13.38;;;;;;;;;;5014089;28;20630;-62
2023/04/22 03:37:09;;;;;;;23.13;13.82;;;;;;;;;;5013280;28;20053;-63
2023/04/22 03:39:34;;;;;;;23.40;13.52;;;;;;;;;;5023781;28;20068;-62
2023/04/22 03:42:01;;;;;;;22.85;13.00;;;;;;;;;;5023078;28;20078;-63
2023/04/22 03:44:26;;;;;;;24.52;12.90;;;;;;;;;;5017242;28;20107;-62
2023/04/22 03:46:51;;;;;;;22.45;13.10;;;;;;;;;;5013834;28;20122;-63
2023/04/22 03:49:17;;;;;;;22.45;13.02;;;;;;;;;;5013520;28;20029;-62
2023/04/22 03:51:42;;;;;;;22.67;12.98;;;;;;;;;;5012654;28;20122;-63
2023/04/22 03:54:08;;;;;;;20.73;12.77;;;;;;;;;;5012463;28;20041;-62
2023/04/22 03:56:33;;;;;;;19.98;12.38;;;;;;;;;;5012907;28;20399;-63
2023/04/22 03:58:58;;;;;;;22.90;12.55;;;;;;;;;;5020791;28;20053;-63
2023/04/22 04:01:24;;;;;;;21.63;12.13;;;;;;;;;;5014163;28;20049;-63
2023/04/22 04:03:50;;;;;;;23.73;12.60;;;;;;;;;;5025583;28;20395;-64
2023/04/22 04:06:15;;;;;;;20.08;12.20;;;;;;;;;;5017584;28;20057;-63
2023/04/22 04:08:40;;;;;;;23.75;13.27;;;;;;;;;;5027709;28;20112;-63
2023/04/22 04:11:08;;;;;;;20.02;12.20;;;;;;;;;;5013072;28;20034;-63
2023/04/22 04:13:33;;;;;;;18.15;11.15;;;;;;;;;;5012608;28;20040;-63
2023/04/22 04:15:59;;;;;;;19.08;10.80;;;;;;;;;;5014646;28;20042;-64
2023/04/22 04:18:25;;;;;;;19.58;11.13;;;;;;;;;;5012237;28;20404;-64
2023/04/22 04:20:51;;;;;;;19.15;12.00;;;;;;;;;;5026494;28;20029;-64
2023/04/22 04:23:16;;;;;;;19.98;11.23;;;;;;;;;;5013769;28;20402;-63
2023/04/22 04:25:42;;;;;;;20.55;10.75;;;;;;;;;;5016256;28;20037;-63
2023/04/22 04:28:10;;;;;;;18.38;11.38;;;;;;;;;;5023275;28;20088;-63
2023/04/22 04:30:35;;;;;;;19.00;11.10;;;;;;;;;;5017673;28;20053;-63
2023/04/22 04:33:05;;;;;;;19.77;11.73;;;;;;;;;;5019392;28;20099;-63
2023/04/22 04:35:38;;;;;;;20.08;11.48;;;;;;;;;;5026817;28;20033;-64
2023/04/22 04:38:05;;;;;;;18.40;10.70;;;;;;;;;;5012394;28;20049;-63
2023/04/22 04:40:31;;;;;;;22.38;11.38;;;;;;;;;;5016983;28;20041;-63
2023/04/22 04:42:56;;;;;;;18.15;11.07;;;;;;;;;;5023611;28;20407;-64
2023/04/22 04:45:23;;;;;;;17.63;10.25;;;;;;;;;;5023489;28;20037;-64
2023/04/22 04:47:54;;;;;;;20.00;10.85;;;;;;;;;;5025817;28;20029;-64
2023/04/22 04:50:20;;;;;;;18.15;10.73;;;;;;;;;;5013000;28;20038;-63
2023/04/22 04:52:47;;;;;;;17.73;10.30;;;;;;;;;;5026469;28;20114;-63
2023/04/22 04:55:14;;;;;;;17.23;10.73;;;;;;;;;;5028995;28;20037;-63
2023/04/22 04:57:40;;;;;;;16.35;10.27;;;;;;;;;;5028842;28;20030;-64
2023/04/22 05:00:07;;;;;;;17.42;10.50;;;;;;;;;;5022527;28;20042;-63
2023/04/22 05:02:32;;;;;;;17.38;10.27;;;;;;;;;;5024073;28;20069;-63
2023/04/22 05:04:57;;;;;;;19.33;10.40;;;;;;;;;;5032432;28;20500;-63
2023/04/22 05:07:23;;;;;;;16.83;10.27;;;;;;;;;;5028716;28;20044;-63
2023/04/22 05:09:48;;;;;;;16.33;10.13;;;;;;;;;;5030015;28;20068;-63
2023/04/22 05:12:14;;;;;;;18.45;10.60;;;;;;;;;;5014615;28;20436;-63
2023/04/22 05:14:40;;;;;;;17.77;10.55;;;;;;;;;;5038283;28;20029;-63
2023/04/22 05:17:05;;;;;;;18.27;10.63;;;;;;;;;;5035604;28;20033;-64
2023/04/22 05:19:31;;;;;;;17.58;11.13;;;;;;;;;;5012006;28;20092;-63
2023/04/22 05:21:56;;;;;;;18.45;11.63;;;;;;;;;;5022286;28;20491;-62
2023/04/22 05:24:21;;;;;;;19.70;11.27;;;;;;;;;;5021842;28;20033;-63
2023/04/22 05:26:47;;;;;;;21.08;11.52;;;;;;;;;;5021140;28;20037;-64
2023/04/22 05:29:12;;;;;;;21.05;11.25;;;;;;;;;;5031811;28;20079;-63
2023/04/22 05:31:38;;;;;;;22.52;11.43;;;;;;;;;;5029619;28;20053;-63
2023/04/22 05:34:03;;;;;;;17.02;10.90;;;;;;;;;;5031330;28;20025;-62
2023/04/22 05:36:29;;;;;;;17.63;11.05;;;;;;;;;;5026422;28;20046;-64
2023/04/22 05:38:54;;;;;;;16.75;11.10;;;;;;;;;;5011407;28;20107;-65
2023/04/22 05:41:19;;;;;;;16.90;10.20;;;;;;;;;;5021832;28;20430;-63
2023/04/22 05:43:45;;;;;;;21.33;11.02;;;;;;;;;;5023942;28;20038;-64
2023/04/22 05:46:10;;;;;;;16.35;9.90;;;;;;;;;;5034630;28;20037;-64
2023/04/22 05:48:36;;;;;;;17.80;10.82;;;;;;;;;;5030675;28;20040;-64
2023/04/22 05:51:01;;;;;;;17.27;10.13;;;;;;;;;;5030413;28;20480;-63
2023/04/22 05:53:27;;;;;;;17.70;10.38;;;;;;;;;;5030249;28;20029;-63
2023/04/22 05:55:52;;;;;;;17.75;10.77;;;;;;;;;;5030462;28;20032;-64
2023/04/22 05:58:18;;;;;;;16.48;10.23;;;;;;;;;;5015385;28;20469;-64
2023/04/22 06:00:43;;;;;;;17.95;10.93;;;;;;;;;;5011134;28;20034;-63
2023/04/22 06:03:08;;;;;;;15.90;9.77;;;;;;;;;;5027444;28;20033;-63
2023/04/22 06:05:34;;;;;;;16.83;10.75;;;;;;;;;;5029846;28;20191;-64
2023/04/22 06:08:00;;;;;;;19.45;10.95;;;;;;;;;;5021945;28;20057;-63
2023/04/22 06:10:25;;;;;;;16.90;10.68;;;;;;;;;;5031418;28;20029;-65
2023/04/22 06:12:50;;;;;;;16.33;10.60;;;;;;;;;;5029650;28;20733;-64
2023/04/22 06:15:16;;;;;;;17.10;10.70;;;;;;;;;;5030225;28;20125;-64
2023/04/22 06:17:43;;;;;;;17.02;10.18;;;;;;;;;;5030133;28;20472;-64
2023/04/22 06:20:09;;;;;;;18.33;10.82;;;;;;;;;;5028211;28;20029;-63
2023/04/22 06:22:35;;;;;;;16.83;11.13;;;;;;;;;;5030086;28;20068;-63
2023/04/22 06:25:00;;;;;;;16.52;10.35;;;;;;;;;;5023679;28;20030;-64
2023/04/22 06:27:25;;;;;;;17.83;11.05;;;;;;;;;;5031368;28;20052;-64
2023/04/22 06:29:51;;;;;;;17.40;10.57;;;;;;;;;;5023614;28;20025;-65
2023/04/22 06:32:16;;;;;;;15.75;10.60;;;;;;;;;;5024291;28;20476;-69
2023/04/22 06:34:41;;;;;;;20.48;10.73;;;;;;;;;;5028747;28;20029;-68
2023/04/22 06:37:07;;;;;;;15.52;10.05;;;;;;;;;;5017914;28;20050;-69
2023/04/22 06:39:33;;;;;;;16.63;10.68;;;;;;;;;;5028793;28;20482;-69
2023/04/22 06:42:00;;;;;;;15.95;10.75;;;;;;;;;;5030315;28;20227;-62
2023/04/22 06:44:26;;;;;;;15.07;9.90;;;;;;;;;;5031306;28;20384;-63
2023/04/22 06:46:51;;;;;;;14.80;9.70;;;;;;;;;;5027284;28;20495;-63
2023/04/22 06:49:17;;;;;;;16.95;9.70;;;;;;;;;;5031179;28;20435;-61
2023/04/22 06:51:42;;;;;;;16.20;9.55;;;;;;;;;;5029541;28;20542;-62
2023/04/22 06:54:08;;;;;;;13.82;9.68;;;;;;;;;;5030719;28;20030;-63
2023/04/22 06:56:33;;;;;;;14.60;8.82;;;;;;;;;;5030610;28;20037;-63
2023/04/22 06:58:59;;;;;;;16.98;9.57;;;;;;;;;;5033383;28;20083;-62
2023/04/22 07:01:25;;;;;;;14.98;9.55;;;;;;;;;;5028102;28;20025;-63
2023/04/22 07:03:50;;;;;;;13.48;8.50;;;;;;;;;;5029792;28;20048;-62
2023/04/22 07:06:15;;;;;;;13.10;8.73;;;;;;;;;;5032725;28;20113;-61
2023/04/22 07:08:41;;;;;;;12.35;8.68;;;;;;;;;;5024935;28;20443;-62
2023/04/22 07:11:08;;;;;;;11.80;8.35;;;;;;;;;;5022516;28;20029;-63
2023/04/22 07:13:33;;;;;;;14.02;8.05;;;;;;;;;;5034449;28;20471;-63
2023/04/22 07:16:01;;;;;;;13.20;8.10;;;;;;;;;;5031244;28;20072;-62
2023/04/22 07:18:27;;;;;;;11.88;7.68;;;;;;;;;;5033317;28;20029;-62
2023/04/22 07:20:53;;;;;;;14.40;8.57;;;;;;;;;;5032244;28;20026;-64
2023/04/22 07:23:20;;;;;;;12.23;8.05;;;;;;;;;;5025199;28;20037;-61
2023/04/22 07:25:46;;;;;;;10.05;7.45;;;;;;;;;;5022441;28;20079;-62
2023/04/22 07:28:12;;;;;;;11.65;7.82;;;;;;;;;;5044043;28;20041;-62
2023/04/22 07:30:38;;;;;;;10.05;6.75;;;;;;;;;;5052386;28;20029;-64
2023/04/22 07:33:03;;;;;;;9.18;6.63;;;;;;;;;;5030899;28;20045;-62
2023/04/22 07:35:29;;;;;;;8.50;6.28;;;;;;;;;;5033264;28;20030;-62
2023/04/22 07:37:55;;;;;;;11.10;6.18;;;;;;;;;;5026110;28;20488;-62
2023/04/22 07:40:20;;;;;;;9.50;6.22;;;;;;;;;;5013135;28;20069;-62
2023/04/22 07:42:46;;;;;;;11.60;6.00;;;;;;;;;;5030796;28;20112;-64
2023/04/22 07:45:12;;;;;;;9.27;5.93;;;;;;;;;;5035262;28;20021;-63
2023/04/22 07:47:37;;;;;;;6.95;5.10;;;;;;;;;;5031990;28;20033;-62
2023/04/22 07:50:03;;;;;;;7.95;5.53;;;;;;;;;;5032522;28;20394;-63
2023/04/22 07:52:29;;;;;;;7.47;5.43;;;;;;;;;;5032996;28;20029;-64
2023/04/22 07:54:55;;;;;;;8.02;4.90;;;;;;;;;;5026918;28;20036;-63
2023/04/22 07:57:21;;;;;;;7.40;4.45;;;;;;;;;;5022720;28;20677;-63
2023/04/22 07:59:50;;;;;;;7.05;4.32;;;;;;;;;;5030223;28;20037;-63
2023/04/22 08:02:15;;;;;;;7.53;3.90;;;;;;;;;;5032997;28;20021;-62
2023/04/22 08:04:41;;;;;;;5.28;3.50;;;;;;;;;;5031167;28;20105;-65
2023/04/22 08:07:06;;;;;;;5.47;3.65;;;;;;;;;;5031976;28;20507;-65
2023/04/22 08:09:32;;;;;;;6.72;3.47;;;;;;;;;;5032032;28;20054;-63
2023/04/22 08:11:57;;;;;;;5.90;3.63;;;;;;;;;;5043789;28;20043;-63
2023/04/22 08:14:23;;;;;;;6.18;3.40;;;;;;;;;;5051165;28;20158;-63
2023/04/22 08:16:51;;;;;;;4.07;3.00;;;;;;;;;;5013288;28;20109;-63
2023/04/22 08:19:18;;;;;;;8.90;3.00;;;;;;;;;;5028696;28;20030;-64
2023/04/22 08:21:43;;;;;;;3.90;2.67;;;;;;;;;;5032669;28;20061;-63
2023/04/22 08:24:09;;;;;;;4.10;2.80;;;;;;;;;;5031113;28;20060;-64
2023/04/22 08:26:36;;;;;;;4.13;2.60;;;;;;;;;;5037583;28;20121;-62
2023/04/22 08:29:02;;;;;;;4.03;2.58;;;;;;;;;;5051509;28;20107;-63
2023/04/22 08:31:27;;;;;;;3.17;2.40;;;;;;;;;;5035533;28;20041;-63
2023/04/22 08:33:53;;;;;;;4.25;2.65;;;;;;;;;;5028251;28;20037;-63
2023/04/22 08:36:21;;;;;;;3.90;2.40;;;;;;;;;;5031676;28;20059;-63
2023/04/22 08:38:47;;;;;;;5.43;2.63;;;;;;;;;;5029697;28;20030;-63
2023/04/22 08:41:12;;;;;;;5.60;2.63;;;;;;;;;;5031689;28;20087;-63
2023/04/22 08:43:38;;;;;;;3.85;2.90;;;;;;;;;;5031644;28;20437;-64
2023/04/22 08:46:04;;;;;;;3.60;2.50;;;;;;;;;;5030549;28;20435;-62
2023/04/22 08:48:31;;;;;;;3.90;2.47;;;;;;;;;;5028309;28;20070;-63
2023/04/22 08:50:57;;;;;;;5.30;2.50;;;;;;;;;;5030874;28;20095;-63
2023/04/22 08:53:22;;;;;;;4.97;2.40;;;;;;;;;;5030249;28;20033;-62
2023/04/22 08:55:48;;;;;;;6.22;2.65;;;;;;;;;;5031507;28;20041;-63
2023/04/22 08:58:13;;;;;;;5.60;2.30;;;;;;;;;;5029140;28;20501;-62
2023/04/22 09:00:42;;;;;;;4.45;2.50;;;;;;;;;;5029462;28;20455;-62
2023/04/22 09:03:08;;;;;;;7.32;2.47;;;;;;;;;;5032200;28;20041;-63
2023/04/22 09:05:36;;;;;;;3.08;2.10;;;;;;;;;;5031631;28;20037;-62
2023/04/22 09:08:02;;;;;;;3.33;2.22;;;;;;;;;;5028590;28;20850;-63
2023/04/22 09:10:29;;;;;;;3.08;2.30;;;;;;;;;;5032451;28;20071;-63
2023/04/22 09:12:57;;;;;;;3.10;2.30;;;;;;;;;;5033314;28;20026;-63
2023/04/22 09:15:23;;;;;;;4.20;2.10;;;;;;;;;;5032990;28;20487;-65
2023/04/22 09:17:51;;;;;;;5.30;2.40;;;;;;;;;;5031595;28;20025;-64
2023/04/22 09:20:18;;;;;;;3.20;2.08;;;;;;;;;;5032315;28;20036;-65
2023/04/22 09:22:45;;;;;;;3.75;2.33;;;;;;;;;;5032094;28;20021;-63
2023/04/22 09:25:18;;;;;;;6.13;2.28;;;;;;;;;;5032302;28;20037;-64
2023/04/22 09:27:51;;;;;;;4.90;2.40;;;;;;;;;;5031723;28;20082;-64
2023/04/22 09:30:28;;;;;;;3.08;2.10;;;;;;;;;;5047519;28;20512;-65
2023/04/22 09:33:04;;;;;;;5.55;2.05;;;;;;;;;;5030526;28;20116;-63
2023/04/22 09:35:32;;;;;;;3.63;2.10;;;;;;;;;;5031061;28;20356;-65
2023/04/22 09:37:59;;;;;;;3.58;2.20;;;;;;;;;;5029727;28;20079;-65
2023/04/22 09:40:26;;;;;;;4.03;2.20;;;;;;;;;;5030757;28;20120;-65
2023/04/22 09:42:54;;;;;;;3.78;2.38;;;;;;;;;;5031010;28;20075;-64
2023/04/22 09:45:33;;;;;;;3.38;2.17;;;;;;;;;;5031894;28;20033;-64
2023/04/22 09:48:09;;;;;;;5.95;2.40;;;;;;;;;;5027363;28;20018;-63
2023/04/22 09:50:37;;;;;;;3.95;2.10;;;;;;;;;;5012193;28;20030;-64
2023/04/22 09:53:07;;;;;;;4.13;2.20;;;;;;;;;;5011188;28;20034;-63
2023/04/22 09:55:35;;;;;;;;;;;;;;;;;;5013087;28;20487;-63
2023/04/22 09:58:07;;;;;;;3.08;1.98;;;;;;;;;;5023436;28;20003;-62
2023/04/22 10:00:34;;;;;;;4.28;2.20;;;;;;;;;;5012453;28;20034;-62
2023/04/22 10:03:00;;;;;;;3.50;2.30;;;;;;;;;;5030366;28;20044;-63
2023/04/22 10:05:28;;;;;;;4.70;2.30;;;;;;;;;;5022607;28;20029;-63
2023/04/22 10:07:54;;;;;;;3.47;2.30;;;;;;;;;;5026426;28;20040;-64
2023/04/22 10:10:19;;;;;;;6.20;2.30;;;;;;;;;;5030790;28;20037;-63
2023/04/22 10:12:47;;;;;;;3.78;2.30;;;;;;;;;;5030550;28;20431;-63
2023/04/22 10:15:13;;;;;;;3.33;2.30;;;;;;;;;;5029483;28;20064;-62
2023/04/22 10:17:40;;;;;;;2.95;2.15;;;;;;;;;;5023845;28;20026;-61
2023/04/22 10:20:12;;;;;;;4.07;2.30;;;;;;;;;;5022883;28;20039;-62
2023/04/22 10:22:41;;;;;;;5.45;2.20;;;;;;;;;;5033896;28;20037;-62
2023/04/22 10:25:24;;;;;;;4.63;2.30;;;;;;;;;;5030139;28;20118;-63
2023/04/22 10:28:10;;;;;;;6.97;2.20;;;;;;;;;;5028990;28;20042;-62
2023/04/22 10:30:39;;;;;;;4.72;2.28;;;;;;;;;;5027502;28;20021;-63
2023/04/22 10:33:22;;;;;;;4.95;2.08;;;;;;;;;;5032285;28;20045;-62
2023/04/22 10:36:13;;;;;;;3.70;2.20;;;;;;;;;;5034911;28;20025;-61
2023/04/22 10:38:40;;;;;;;2.42;2.22;;;;;;;;;;5040664;28;20530;-63
2023/04/22 10:41:06;;;;;;;3.40;2.30;;;;;;;;;;5029152;28;20116;-63
2023/04/22 10:43:46;;;;;;;3.63;2.30;;;;;;;;;;5034867;28;20037;-62
2023/04/22 10:46:31;;;;;;;3.40;2.20;;;;;;;;;;5032711;28;20048;-63
2023/04/22 10:48:57;;;;;;;3.88;2.33;;;;;;;;;;5019979;28;20137;-62
2023/04/22 10:51:43;;;;;;;3.28;2.30;;;;;;;;;;5014671;28;20464;-62
2023/04/22 10:54:35;;;;;;;5.28;2.40;;;;;;;;;;5032910;28;20625;-62
2023/04/22 10:57:11;;;;;;;3.28;2.30;;;;;;;;;;4990615;28;20048;-61
2023/04/22 10:59:48;;;;;;;4.53;2.40;;;;;;;;;;5027735;28;20029;-61
2023/04/22 11:02:14;;;;;;;3.65;2.30;;;;;;;;;;5031140;28;20033;-62
2023/04/22 11:04:40;;;;;;;4.60;2.22;;;;;;;;;;5033999;28;20556;-62
2023/04/22 11:07:28;;;;;;;3.38;2.40;;;;;;;;;;5015423;28;20105;-61
2023/04/22 11:10:14;;;;;;;3.97;2.65;;;;;;;;;;5015307;28;20455;-62
2023/04/22 11:12:41;;;;;;;6.28;2.40;;;;;;;;;;5015114;28;20448;-62
2023/04/22 11:15:09;;;;;;;3.70;2.10;;;;;;;;;;5030647;28;20115;-62
2023/04/22 11:17:36;;;;;;;5.97;2.30;;;;;;;;;;5033628;28;20029;-62
2023/04/22 11:20:03;;;;;;;3.85;2.40;;;;;;;;;;5032678;28;20041;-62
2023/04/22 11:22:43;;;;;;;3.22;2.42;;;;;;;;;;5034855;28;20108;-62
2023/04/22 11:25:09;;;;;;;6.18;2.50;;;;;;;;;;5035143;28;20056;-62
2023/04/22 11:27:36;;;;;;;4.28;2.20;;;;;;;;;;5042444;28;20099;-62
2023/04/22 11:30:07;;;;;;;5.47;2.15;;;;;;;;;;5012265;28;20029;-62
2023/04/22 11:32:34;;;;;;;3.42;2.10;;;;;;;;;;5031670;28;20037;-61
2023/04/22 11:35:03;;;;;;;5.03;2.10;;;;;;;;;;5033164;28;20136;-61
2023/04/22 11:37:29;;;;;;;5.22;2.30;;;;;;;;;;5034016;28;20061;-61
2023/04/22 11:40:01;;;;;;;2.75;2.20;;;;;;;;;;5033230;28;20037;-61
2023/04/22 11:42:26;;;;;;;5.32;2.08;;;;;;;;;;5024596;28;20487;-61
2023/04/22 11:44:51;;;;;;;5.65;2.55;;;;;;;;;;5031896;28;20025;-62
2023/04/22 11:47:18;;;;;;;5.05;2.53;;;;;;;;;;5031437;28;20029;-62
2023/04/22 11:50:09;;;;;;;5.07;2.47;;;;;;;;;;5015534;28;20080;-61
2023/04/22 11:52:44;;;;;;;;;;;;;;;;;;5014693;28;20067;-61
2023/04/22 11:55:15;;;;;;;3.72;2.50;;;;;;;;;;5013949;28;19909;-61
2023/04/22 11:57:41;;;;;;;;;;;;;;;;;;5030520;28;20047;-62
2023/04/22 12:00:11;;;;;;;4.32;2.40;;;;;;;;;;5031865;28;19913;-62
2023/04/22 12:02:37;;;;;;;3.15;2.40;;;;;;;;;;5033408;28;20105;-62
2023/04/22 12:05:02;;;;;;;3.60;2.42;;;;;;;;;;5032791;28;20057;-61
2023/04/22 12:07:28;;;;;;;4.22;2.55;;;;;;;;;;5032067;28;20038;-61
2023/04/22 12:09:54;;;;;;;3.72;2.47;;;;;;;;;;5033321;28;20078;-61
2023/04/22 12:12:25;;;;;;;6.25;2.40;;;;;;;;;;5033527;28;20037;-61
2023/04/22 12:14:51;;;;;;;3.75;2.47;;;;;;;;;;5033264;28;20029;-62
2023/04/22 12:17:24;;;;;;;6.53;2.40;;;;;;;;;;5031008;28;20033;-63
2023/04/22 12:19:55;;;;;;;4.60;3.00;;;;;;;;;;5032162;28;20043;-60
2023/04/22 12:22:26;;;;;;;4.28;2.50;;;;;;;;;;5032909;28;20034;-62
2023/04/22 12:24:51;;;;;;;7.45;3.10;;;;;;;;;;5027700;28;20033;-62
2023/04/22 12:27:17;;;;;;;7.55;2.63;;;;;;;;;;5013041;28;20499;-62
2023/04/22 12:29:54;;;;;;;4.15;2.70;;;;;;;;;;5028749;28;20373;-62
2023/04/22 12:32:20;;;;;;;6.47;3.10;;;;;;;;;;5012692;28;20038;-62
2023/04/22 12:34:46;;;;;;;4.70;2.75;;;;;;;;;;5031771;28;20037;-62
2023/04/22 12:37:12;;;;;;;4.03;2.60;;;;;;;;;;5024961;28;20053;-63
2023/04/22 12:39:37;;;;;;;4.35;2.72;;;;;;;;;;5026221;28;20507;-62
2023/04/22 12:42:04;;;;;;;4.13;2.33;;;;;;;;;;5030848;28;20033;-62
2023/04/22 12:44:31;;;;;;;6.25;2.42;;;;;;;;;;5024502;28;20030;-61
2023/04/22 12:46:56;;;;;;;5.75;2.78;;;;;;;;;;5013517;28;20034;-61
2023/04/22 12:49:22;;;;;;;3.95;2.60;;;;;;;;;;5018022;28;20053;-60
2023/04/22 12:51:47;;;;;;;4.00;2.60;;;;;;;;;;5032546;28;20037;-61
2023/04/22 12:54:13;;;;;;;4.22;2.60;;;;;;;;;;5027724;28;20029;-62
2023/04/22 12:56:38;;;;;;;4.25;2.80;;;;;;;;;;5030956;28;20057;-61
2023/04/22 12:59:04;;;;;;;4.43;2.63;;;;;;;;;;5021174;28;20502;-60
2023/04/22 13:01:30;;;;;;;4.10;2.55;;;;;;;;;;5013852;28;20034;-61
2023/04/22 13:03:55;;;;;;;5.07;2.80;;;;;;;;;;5027220;28;20034;-61
2023/04/22 13:06:21;;;;;;;7.55;3.38;;;;;;;;;;5027660;28;20033;-61
2023/04/22 13:08:47;;;;;;;4.85;2.70;;;;;;;;;;5014912;28;20029;-62
2023/04/22 13:11:12;;;;;;;7.53;3.00;;;;;;;;;;5010521;28;20034;-61
2023/04/22 13:13:37;;;;;;;5.57;2.80;;;;;;;;;;5013190;28;20034;-62
2023/04/22 13:16:03;;;;;;;4.88;2.90;;;;;;;;;;5024875;28;20521;-62
2023/04/22 13:18:29;;;;;;;4.72;2.72;;;;;;;;;;5031095;28;20044;-61
2023/04/22 13:20:57;;;;;;;6.03;3.13;;;;;;;;;;5041520;28;20041;-62
2023/04/22 13:23:24;;;;;;;5.85;2.70;;;;;;;;;;5050604;28;20167;-61
2023/04/22 13:25:50;;;;;;;8.40;3.00;;;;;;;;;;5019813;28;20037;-63
2023/04/22 13:28:15;;;;;;;4.82;3.00;;;;;;;;;;5011642;28;20113;-64
2023/04/22 13:30:41;;;;;;;4.57;3.00;;;;;;;;;;5022914;28;20038;-63
2023/04/22 13:33:06;;;;;;;4.93;2.58;;;;;;;;;;5031200;28;20037;-63
2023/04/22 13:35:31;;;;;;;3.22;2.50;;;;;;;;;;5030111;28;20079;-63
2023/04/22 13:37:57;;;;;;;4.70;2.97;;;;;;;;;;5031908;28;20376;-62
2023/04/22 13:40:23;;;;;;;5.05;2.78;;;;;;;;;;5029862;28;20034;-62
2023/04/22 13:42:48;;;;;;;6.35;2.95;;;;;;;;;;5031886;28;20034;-62
2023/04/22 13:45:14;;;;;;;5.65;3.15;;;;;;;;;;5029559;28;20432;-64
2023/04/22 13:47:39;;;;;;;6.40;2.40;;;;;;;;;;5031817;28;20026;-63
2023/04/22 13:50:05;;;;;;;8.80;3.00;;;;;;;;;;5027556;28;20030;-62
2023/04/22 13:52:31;;;;;;;5.32;2.70;;;;;;;;;;5031478;28;20038;-62
2023/04/22 13:54:56;;;;;;;5.82;2.95;;;;;;;;;;5030895;28;20100;-62
2023/04/22 13:57:22;;;;;;;4.03;2.80;;;;;;;;;;5031166;28;20137;-62
2023/04/22 13:59:49;;;;;;;7.25;2.90;;;;;;;;;;5031001;28;20040;-63
2023/04/22 14:02:14;;;;;;;5.88;3.30;;;;;;;;;;5030863;28;20041;-63
2023/04/22 14:04:40;;;;;;;5.63;3.10;;;;;;;;;;5031245;28;20029;-63
2023/04/22 14:07:05;;;;;;;6.57;3.50;;;;;;;;;;5029246;28;20034;-63
2023/04/22 14:09:31;;;;;;;6.82;3.40;;;;;;;;;;5027702;28;20022;-62
2023/04/22 14:11:57;;;;;;;7.53;2.88;;;;;;;;;;5029502;28;20030;-62
2023/04/22 14:14:22;;;;;;;4.30;2.80;;;;;;;;;;5028978;28;20029;-62
2023/04/22 14:16:48;;;;;;;4.30;2.78;;;;;;;;;;5030172;28;20068;-62
2023/04/22 14:19:13;;;;;;;8.93;3.10;;;;;;;;;;5030764;28;20030;-62
2023/04/22 14:21:38;;;;;;;7.05;3.17;;;;;;;;;;5029557;28;20048;-62
2023/04/22 14:24:04;;;;;;;6.97;2.67;;;;;;;;;;5020785;28;20461;-61
2023/04/22 14:26:31;;;;;;;4.55;2.80;;;;;;;;;;5011527;28;20034;-62
2023/04/22 14:28:57;;;;;;;3.63;2.60;;;;;;;;;;5011467;28;20449;-62